createdAt,value
2018-05-04T00:00:36.374Z,23.3
2018-05-04T00:01:26.424Z,23.3
2018-05-04T00:02:16.758Z,23.3
2018-05-04T00:03:06.833Z,23.3
2018-05-04T00:03:56.900Z,23.3
2018-05-04T00:04:46.985Z,23.3
2018-05-04T00:05:37.003Z,23.3
2018-05-04T00:06:27.075Z,23.3
2018-05-04T00:07:17.136Z,23.3
2018-05-04T00:08:07.199Z,23.3
2018-05-04T00:08:56.993Z,23.3
2018-05-04T00:09:47.047Z,23.3
2018-05-04T00:10:37.398Z,23.3
2018-05-04T00:11:27.187Z,23.3
2018-05-04T00:12:17.535Z,23.3
2018-05-04T00:13:07.581Z,23.3
2018-05-04T00:13:57.383Z,23.3
2018-05-04T00:14:47.711Z,23.3
2018-05-04T00:15:37.780Z,23.3
2018-05-04T00:16:27.839Z,23.3
2018-05-04T00:17:17.902Z,23.3
2018-05-04T00:18:07.965Z,23.3
2018-05-04T00:18:57.746Z,23.3
2018-05-04T00:19:48.089Z,23.3
2018-05-04T00:20:38.156Z,23.3
2018-05-04T00:21:28.237Z,23.3
2018-05-04T00:22:18.006Z,23.3
2018-05-04T00:23:08.355Z,23.3
2018-05-04T00:23:58.410Z,23.3
2018-05-04T00:24:48.483Z,23.3
2018-05-04T00:25:38.560Z,23.3
2018-05-04T00:26:28.335Z,23.3
2018-05-04T00:27:18.672Z,23.3
2018-05-04T00:28:08.735Z,23.3
2018-05-04T00:28:58.528Z,23.3
2018-05-04T00:29:48.579Z,23.3
2018-05-04T00:30:38.929Z,23.3
2018-05-04T00:31:28.993Z,23.3
2018-05-04T00:32:19.051Z,23.3
2018-05-04T00:33:09.115Z,23.3
2018-05-04T00:33:59.182Z,23.3
2018-05-04T00:34:49.240Z,23.3
2018-05-04T00:35:39.315Z,23.3
2018-05-04T00:36:29.368Z,23.3
2018-05-04T00:37:19.443Z,23.3
2018-05-04T00:38:09.503Z,23.3
2018-05-04T00:38:59.285Z,23.3
2018-05-04T00:39:49.652Z,23.3
2018-05-04T00:40:39.407Z,23.3
2018-05-04T00:41:29.768Z,23.3
2018-05-04T00:42:19.818Z,23.3
2018-05-04T00:43:09.606Z,23.3
2018-05-04T00:43:59.948Z,23.3
2018-05-04T00:44:50.029Z,23.3
2018-05-04T00:45:39.797Z,23.3
2018-05-04T00:46:30.143Z,23.3
2018-05-04T00:47:20.206Z,23.3
2018-05-04T00:48:10.272Z,23.3
2018-05-04T00:49:00.355Z,23.3
2018-05-04T00:49:50.114Z,23.3
2018-05-04T00:50:40.458Z,23.3
2018-05-04T00:51:30.247Z,23.3
2018-05-04T00:52:20.594Z,23.3
2018-05-04T00:53:10.650Z,23.3
2018-05-04T00:54:00.149Z,23.3
2018-05-04T00:54:50.787Z,23.3
2018-05-04T00:55:40.845Z,23.3
2018-05-04T00:56:30.906Z,23.3
2018-05-04T00:57:20.972Z,23.3
2018-05-04T00:58:11.030Z,23.3
2018-05-04T00:59:01.097Z,23.3
2018-05-04T00:59:51.168Z,23.3
2018-05-04T01:00:41.225Z,23.3
2018-05-04T01:01:31.287Z,23.3
2018-05-04T01:02:21.358Z,23.3
2018-05-04T01:03:11.142Z,23.3
2018-05-04T01:04:01.195Z,23.3
2018-05-04T01:04:51.569Z,23.3
2018-05-04T01:05:41.333Z,23.3
2018-05-04T01:06:31.672Z,23.3
2018-05-04T01:07:21.451Z,23.3
2018-05-04T01:08:11.821Z,23.3
2018-05-04T01:09:01.862Z,23.3
2018-05-04T01:09:51.936Z,23.3
2018-05-04T01:10:42.007Z,23.3
2018-05-04T01:11:31.774Z,23.3
2018-05-04T01:12:22.139Z,23.3
2018-05-04T01:13:12.187Z,23.3
2018-05-04T01:14:02.259Z,23.3
2018-05-04T01:14:52.042Z,23.3
2018-05-04T01:15:42.396Z,23.3
2018-05-04T01:16:32.153Z,23.3
2018-05-04T01:17:22.501Z,23.3
2018-05-04T01:18:12.576Z,23.3
2018-05-04T01:19:02.649Z,23.4
2018-05-04T01:19:52.711Z,23.3
2018-05-04T01:20:42.764Z,23.3
2018-05-04T01:21:32.851Z,23.3
2018-05-04T01:22:22.884Z,23.3
2018-05-04T01:23:12.951Z,23.3
2018-05-04T01:24:03.014Z,23.3
2018-05-04T01:24:53.074Z,23.3
2018-05-04T01:25:43.133Z,23.3
2018-05-04T01:26:33.204Z,23.3
2018-05-04T01:27:23.267Z,23.3
2018-05-04T01:28:13.329Z,23.3
2018-05-04T01:29:03.384Z,23.4
2018-05-04T01:29:53.184Z,23.3
2018-05-04T01:30:43.237Z,23.3
2018-05-04T01:31:33.581Z,23.3
2018-05-04T01:32:23.654Z,23.3
2018-05-04T01:33:13.709Z,23.3
2018-05-04T01:34:03.504Z,23.3
2018-05-04T01:34:53.551Z,23.3
2018-05-04T01:35:43.903Z,23.3
2018-05-04T01:36:33.985Z,23.3
2018-05-04T01:37:24.036Z,23.3
2018-05-04T01:38:14.095Z,23.3
2018-05-04T01:39:04.154Z,23.3
2018-05-04T01:39:54.216Z,23.3
2018-05-04T01:40:44.298Z,23.4
2018-05-04T01:41:34.352Z,23.3
2018-05-04T01:42:24.416Z,23.3
2018-05-04T01:43:14.488Z,23.3
2018-05-04T01:44:04.536Z,23.3
2018-05-04T01:44:54.038Z,23.3
2018-05-04T01:45:44.662Z,23.3
2018-05-04T01:46:34.726Z,23.3
2018-05-04T01:47:24.813Z,23.4
2018-05-04T01:48:14.859Z,23.4
2018-05-04T01:49:04.919Z,23.4
2018-05-04T01:49:54.983Z,23.3
2018-05-04T01:50:45.046Z,23.4
2018-05-04T01:51:34.824Z,23.3
2018-05-04T01:52:25.189Z,23.3
2018-05-04T01:53:14.959Z,23.3
2018-05-04T01:54:05.317Z,23.4
2018-05-04T01:54:55.396Z,23.3
2018-05-04T01:55:45.144Z,23.4
2018-05-04T01:56:35.511Z,23.3
2018-05-04T01:57:25.583Z,23.4
2018-05-04T01:58:15.664Z,23.4
2018-05-04T01:59:05.689Z,23.4
2018-05-04T01:59:55.751Z,23.4
2018-05-04T02:00:45.534Z,23.3
2018-05-04T02:01:35.891Z,23.4
2018-05-04T02:02:25.935Z,23.4
2018-05-04T02:03:16.003Z,23.3
2018-05-04T02:04:06.084Z,23.3
2018-05-04T02:04:56.142Z,23.3
2018-05-04T02:05:45.913Z,23.3
2018-05-04T02:06:36.259Z,23.4
2018-05-04T02:07:26.317Z,23.4
2018-05-04T02:08:16.383Z,23.3
2018-05-04T02:09:06.460Z,23.4
2018-05-04T02:09:56.229Z,23.3
2018-05-04T02:10:46.664Z,23.4
2018-05-04T02:11:36.641Z,23.3
2018-05-04T02:12:26.705Z,23.4
2018-05-04T02:13:16.770Z,23.4
2018-05-04T02:14:06.827Z,23.3
2018-05-04T02:14:56.908Z,23.4
2018-05-04T02:15:46.988Z,23.3
2018-05-04T02:16:37.032Z,23.3
2018-05-04T02:17:27.090Z,23.3
2018-05-04T02:18:16.870Z,23.4
2018-05-04T02:19:07.214Z,23.4
2018-05-04T02:19:57.285Z,23.4
2018-05-04T02:20:47.355Z,23.3
2018-05-04T02:21:37.401Z,23.4
2018-05-04T02:22:27.185Z,23.4
2018-05-04T02:23:17.266Z,23.3
2018-05-04T02:24:07.596Z,23.4
2018-05-04T02:24:57.671Z,23.4
2018-05-04T02:25:47.454Z,23.4
2018-05-04T02:26:37.806Z,23.4
2018-05-04T02:27:27.867Z,23.3
2018-05-04T02:28:17.918Z,23.4
2018-05-04T02:29:08.067Z,23.4
2018-05-04T02:29:58.045Z,23.4
2018-05-04T02:30:48.125Z,23.4
2018-05-04T02:31:38.177Z,23.4
2018-05-04T02:32:28.234Z,23.4
2018-05-04T02:33:18.025Z,23.4
2018-05-04T02:34:08.091Z,23.4
2018-05-04T02:34:58.450Z,23.4
2018-05-04T02:35:48.494Z,23.4
2018-05-04T02:36:38.558Z,23.4
2018-05-04T02:37:28.639Z,23.4
2018-05-04T02:38:18.702Z,23.3
2018-05-04T02:39:08.754Z,23.4
2018-05-04T02:39:58.804Z,23.3
2018-05-04T02:40:48.603Z,23.4
2018-05-04T02:41:38.938Z,23.4
2018-05-04T02:42:29.000Z,23.4
2018-05-04T02:43:19.077Z,23.4
2018-05-04T02:44:08.850Z,23.4
2018-05-04T02:44:59.210Z,23.3
2018-05-04T02:45:48.973Z,23.4
2018-05-04T02:46:39.339Z,23.4
2018-05-04T02:47:29.387Z,23.3
2018-05-04T02:48:19.445Z,23.4
2018-05-04T02:49:09.513Z,23.4
2018-05-04T02:49:59.596Z,23.4
2018-05-04T02:50:49.635Z,23.4
2018-05-04T02:51:39.731Z,23.4
2018-05-04T02:52:29.482Z,23.4
2018-05-04T02:53:19.832Z,23.4
2018-05-04T02:54:09.902Z,23.4
2018-05-04T02:54:59.953Z,23.4
2018-05-04T02:55:50.026Z,23.4
2018-05-04T02:56:40.089Z,23.4
2018-05-04T02:57:29.878Z,23.4
2018-05-04T02:58:20.258Z,23.4
2018-05-04T02:59:10.012Z,23.4
2018-05-04T03:00:00.355Z,23.4
2018-05-04T03:00:50.403Z,23.4
2018-05-04T03:01:40.472Z,23.4
2018-05-04T03:02:30.532Z,23.4
2018-05-04T03:03:20.594Z,23.4
2018-05-04T03:04:10.678Z,23.4
2018-05-04T03:05:00.746Z,23.4
2018-05-04T03:05:50.803Z,23.4
2018-05-04T03:06:40.574Z,23.4
2018-05-04T03:07:30.913Z,23.4
2018-05-04T03:08:20.980Z,23.4
2018-05-04T03:09:11.066Z,23.4
2018-05-04T03:10:01.130Z,23.4
2018-05-04T03:10:51.198Z,23.4
2018-05-04T03:11:41.234Z,23.4
2018-05-04T03:12:31.303Z,23.4
2018-05-04T03:13:21.110Z,23.4
2018-05-04T03:14:11.478Z,23.4
2018-05-04T03:15:01.481Z,23.4
2018-05-04T03:15:51.271Z,23.4
2018-05-04T03:16:41.625Z,23.4
2018-05-04T03:17:31.673Z,23.4
2018-05-04T03:18:21.477Z,23.4
2018-05-04T03:19:11.806Z,23.4
2018-05-04T03:20:01.874Z,23.4
2018-05-04T03:20:51.657Z,23.4
2018-05-04T03:21:41.994Z,23.4
2018-05-04T03:22:32.064Z,23.4
2018-05-04T03:23:22.209Z,23.4
2018-05-04T03:24:12.182Z,23.4
2018-05-04T03:25:02.255Z,23.4
2018-05-04T03:25:52.319Z,23.4
2018-05-04T03:26:42.109Z,23.4
2018-05-04T03:27:32.451Z,23.4
2018-05-04T03:28:22.498Z,23.4
2018-05-04T03:29:12.607Z,23.4
2018-05-04T03:30:02.638Z,23.4
2018-05-04T03:30:52.713Z,23.4
2018-05-04T03:31:42.770Z,23.4
2018-05-04T03:32:32.535Z,23.4
2018-05-04T03:33:22.596Z,23.4
2018-05-04T03:34:12.945Z,23.4
2018-05-04T03:35:03.016Z,23.4
2018-05-04T03:35:53.099Z,23.4
2018-05-04T03:36:43.137Z,23.4
2018-05-04T03:37:33.202Z,23.4
2018-05-04T03:38:23.357Z,23.4
2018-05-04T03:39:13.339Z,23.4
2018-05-04T03:40:03.415Z,23.4
2018-05-04T03:40:53.456Z,23.4
2018-05-04T03:41:43.554Z,23.4
2018-05-04T03:42:33.301Z,23.4
2018-05-04T03:43:23.659Z,23.4
2018-05-04T03:44:13.703Z,23.4
2018-05-04T03:45:03.796Z,23.4
2018-05-04T03:45:53.562Z,23.4
2018-05-04T03:46:43.905Z,23.4
2018-05-04T03:47:33.972Z,23.4
2018-05-04T03:48:24.037Z,23.4
2018-05-04T03:49:13.812Z,23.4
2018-05-04T03:50:03.889Z,23.4
2018-05-04T03:50:54.222Z,23.4
2018-05-04T03:51:44.293Z,23.4
2018-05-04T03:52:34.357Z,23.4
2018-05-04T03:53:24.411Z,23.4
2018-05-04T03:54:13.912Z,23.4
2018-05-04T03:55:04.541Z,23.4
2018-05-04T03:55:54.338Z,23.4
2018-05-04T03:56:44.693Z,23.4
2018-05-04T03:57:34.447Z,23.4
2018-05-04T03:58:24.791Z,23.4
2018-05-04T03:59:14.861Z,23.4
2018-05-04T04:00:04.927Z,23.4
2018-05-04T04:00:54.984Z,23.4
2018-05-04T04:01:45.060Z,23.4
2018-05-04T04:02:35.426Z,23.4
2018-05-04T04:03:24.921Z,23.4
2018-05-04T04:04:14.975Z,23.4
2018-05-04T04:05:05.033Z,23.4
2018-05-04T04:05:55.391Z,23.4
2018-05-04T04:06:45.439Z,23.4
2018-05-04T04:07:35.227Z,23.4
2018-05-04T04:08:25.571Z,23.4
2018-05-04T04:09:15.354Z,23.4
2018-05-04T04:10:05.692Z,23.4
2018-05-04T04:10:55.756Z,23.4
2018-05-04T04:11:45.536Z,23.4
2018-05-04T04:12:36.062Z,23.4
2018-05-04T04:13:25.951Z,23.4
2018-05-04T04:14:16.022Z,23.4
2018-05-04T04:15:06.089Z,23.4
2018-05-04T04:15:56.159Z,23.4
2018-05-04T04:16:46.209Z,23.4
2018-05-04T04:17:36.262Z,23.4
2018-05-04T04:18:26.334Z,23.4
2018-05-04T04:19:16.105Z,23.4
2018-05-04T04:20:06.468Z,23.4
2018-05-04T04:20:56.526Z,23.4
2018-05-04T04:21:46.656Z,23.4
2018-05-04T04:22:36.663Z,23.4
2018-05-04T04:23:26.719Z,23.4
2018-05-04T04:24:16.780Z,23.4
2018-05-04T04:25:06.851Z,23.4
2018-05-04T04:25:56.903Z,23.4
2018-05-04T04:26:46.761Z,23.4
2018-05-04T04:27:37.052Z,23.4
2018-05-04T04:28:27.092Z,23.4
2018-05-04T04:29:16.875Z,23.4
2018-05-04T04:30:07.222Z,23.4
2018-05-04T04:30:57.281Z,23.4
2018-05-04T04:31:47.368Z,23.4
2018-05-04T04:32:37.429Z,23.4
2018-05-04T04:33:27.470Z,23.4
2018-05-04T04:34:17.542Z,23.4
2018-05-04T04:35:07.606Z,23.4
2018-05-04T04:35:57.671Z,23.4
2018-05-04T04:36:47.729Z,23.4
2018-05-04T04:37:37.512Z,23.4
2018-05-04T04:38:27.856Z,23.4
2018-05-04T04:39:17.661Z,23.4
2018-05-04T04:40:08.014Z,23.4
2018-05-04T04:40:58.040Z,23.4
2018-05-04T04:41:48.111Z,23.4
2018-05-04T04:42:38.181Z,23.4
2018-05-04T04:43:28.044Z,23.4
2018-05-04T04:44:18.023Z,23.4
2018-05-04T04:45:08.380Z,23.4
2018-05-04T04:45:57.873Z,23.4
2018-05-04T04:46:48.507Z,23.4
2018-05-04T04:47:38.564Z,23.4
2018-05-04T04:48:28.639Z,23.4
2018-05-04T04:49:18.397Z,23.4
2018-05-04T04:50:08.745Z,23.4
2018-05-04T04:50:58.806Z,23.4
2018-05-04T04:51:48.870Z,23.4
2018-05-04T04:52:38.935Z,23.3
2018-05-04T04:53:28.720Z,23.3
2018-05-04T04:54:19.090Z,23.3
2018-05-04T04:55:09.124Z,23.3
2018-05-04T04:55:59.192Z,23.3
2018-05-04T04:56:49.254Z,23.3
2018-05-04T04:57:39.033Z,23.3
2018-05-04T04:58:29.397Z,23.3
2018-05-04T04:59:19.472Z,23.3
2018-05-04T05:00:09.513Z,23.3
2018-05-04T05:00:59.576Z,23.3
2018-05-04T05:01:49.493Z,23.3
2018-05-04T05:02:39.714Z,23.2
2018-05-04T05:03:29.767Z,23.2
2018-05-04T05:04:19.555Z,23.1
2018-05-04T05:05:09.888Z,23.1
2018-05-04T05:05:59.678Z,23.1
2018-05-04T05:06:49.724Z,23.1
2018-05-04T05:07:40.071Z,23.2
2018-05-04T05:08:30.131Z,23.2
2018-05-04T05:09:20.198Z,23.2
2018-05-04T05:10:09.996Z,23.2
2018-05-04T05:11:00.416Z,23.2
2018-05-04T05:11:50.391Z,23.2
2018-05-04T05:12:40.468Z,23.2
2018-05-04T05:13:30.676Z,23.2
2018-05-04T05:14:20.597Z,23.3
2018-05-04T05:15:10.361Z,23.2
2018-05-04T05:16:00.715Z,23.2
2018-05-04T05:16:50.777Z,23.3
2018-05-04T05:17:40.551Z,23.3
2018-05-04T05:18:30.894Z,23.3
2018-05-04T05:19:20.967Z,23.3
2018-05-04T05:20:10.743Z,23.3
2018-05-04T05:21:01.119Z,23.3
2018-05-04T05:21:51.451Z,23.3
2018-05-04T05:22:41.223Z,23.3
2018-05-04T05:23:31.294Z,23.3
2018-05-04T05:24:21.344Z,23.3
2018-05-04T05:25:11.141Z,23.3
2018-05-04T05:26:01.479Z,23.3
2018-05-04T05:26:51.530Z,23.3
2018-05-04T05:27:41.618Z,23.3
2018-05-04T05:28:31.663Z,23.3
2018-05-04T05:29:21.733Z,23.3
2018-05-04T05:30:11.813Z,23.3
2018-05-04T05:31:01.872Z,23.3
2018-05-04T05:31:51.921Z,23.3
2018-05-04T05:32:41.699Z,23.3
2018-05-04T05:33:32.048Z,23.3
2018-05-04T05:34:22.108Z,23.3
2018-05-04T05:35:12.177Z,23.3
2018-05-04T05:36:02.260Z,23.3
2018-05-04T05:36:52.308Z,23.3
2018-05-04T05:37:42.388Z,23.3
2018-05-04T05:38:32.150Z,23.3
2018-05-04T05:39:22.218Z,23.3
2018-05-04T05:40:12.565Z,23.3
2018-05-04T05:41:02.646Z,23.3
2018-05-04T05:41:52.703Z,23.3
2018-05-04T05:42:42.758Z,23.3
2018-05-04T05:43:32.833Z,23.3
2018-05-04T05:44:22.597Z,23.3
2018-05-04T05:45:12.963Z,23.3
2018-05-04T05:46:02.726Z,23.3
2018-05-04T05:46:52.787Z,23.3
2018-05-04T05:47:42.853Z,23.3
2018-05-04T05:48:33.223Z,23.3
2018-05-04T05:49:23.297Z,23.3
2018-05-04T05:50:13.327Z,23.3
2018-05-04T05:51:03.112Z,23.3
2018-05-04T05:51:53.189Z,23.3
2018-05-04T05:52:43.528Z,23.3
2018-05-04T05:53:33.608Z,23.3
2018-05-04T05:54:23.642Z,23.3
2018-05-04T05:55:13.708Z,23.3
2018-05-04T05:56:03.503Z,23.3
2018-05-04T05:56:53.550Z,23.3
2018-05-04T05:57:43.893Z,23.3
2018-05-04T05:58:33.965Z,23.3
2018-05-04T05:59:23.741Z,23.3
2018-05-04T06:00:14.082Z,23.3
2018-05-04T06:01:03.878Z,23.3
2018-05-04T06:01:54.296Z,23.3
2018-05-04T06:02:44.005Z,23.3
2018-05-04T06:03:34.355Z,23.3
2018-05-04T06:05:33.929Z,23.3
2018-05-04T06:06:23.983Z,23.3
2018-05-04T06:07:13.772Z,23.3
2018-05-04T06:08:04.132Z,23.3
2018-05-04T06:08:54.173Z,23.3
2018-05-04T06:09:44.244Z,23.3
2018-05-04T06:10:34.312Z,23.3
2018-05-04T06:11:24.100Z,23.3
2018-05-04T06:12:14.450Z,23.3
2018-05-04T06:13:04.528Z,23.3
2018-05-04T06:13:54.571Z,23.3
2018-05-04T06:14:44.630Z,23.3
2018-05-04T06:15:34.707Z,23.3
2018-05-04T06:16:24.775Z,23.3
2018-05-04T06:17:14.831Z,23.3
2018-05-04T06:18:04.616Z,23.3
2018-05-04T06:18:54.946Z,23.3
2018-05-04T06:19:45.021Z,23.3
2018-05-04T06:20:35.075Z,23.3
2018-05-04T06:21:25.159Z,23.3
2018-05-04T06:22:15.227Z,23.3
2018-05-04T06:23:05.267Z,23.3
2018-05-04T06:23:55.340Z,23.3
2018-05-04T06:24:45.426Z,23.3
2018-05-04T06:25:35.472Z,23.3
2018-05-04T06:26:25.517Z,23.3
2018-05-04T06:27:15.604Z,23.3
2018-05-04T06:28:05.654Z,23.3
2018-05-04T06:28:55.722Z,23.3
2018-05-04T06:29:45.504Z,23.3
2018-05-04T06:30:35.837Z,23.3
2018-05-04T06:31:25.919Z,23.3
2018-05-04T06:32:15.687Z,23.3
2018-05-04T06:33:05.765Z,23.3
2018-05-04T06:33:56.285Z,23.3
2018-05-04T06:34:46.160Z,23.3
2018-05-04T06:35:36.230Z,23.3
2018-05-04T06:36:26.281Z,23.2
2018-05-04T06:37:16.372Z,23.2
2018-05-04T06:38:06.444Z,23.3
2018-05-04T06:38:56.201Z,23.2
2018-05-04T06:39:46.702Z,23.2
2018-05-04T06:40:36.614Z,23.2
2018-05-04T06:41:26.673Z,23.2
2018-05-04T06:42:16.749Z,23.2
2018-05-04T06:43:06.804Z,23.2
2018-05-04T06:43:56.892Z,23.2
2018-05-04T06:44:46.360Z,23.2
2018-05-04T06:45:36.991Z,23.2
2018-05-04T06:46:27.062Z,23.2
2018-05-04T06:47:16.834Z,23.2
2018-05-04T06:48:07.195Z,23.3
2018-05-04T06:48:57.247Z,23.3
2018-05-04T06:49:47.046Z,23.3
2018-05-04T06:50:37.375Z,23.3
2018-05-04T06:51:27.452Z,23.3
2018-05-04T06:52:17.526Z,23.3
2018-05-04T06:53:07.285Z,23.3
2018-05-04T06:53:57.633Z,23.3
2018-05-04T06:54:47.421Z,23.3
2018-05-04T06:55:37.765Z,23.3
2018-05-04T06:56:27.905Z,23.3
2018-05-04T06:57:17.899Z,23.3
2018-05-04T06:58:07.962Z,23.3
2018-05-04T06:58:58.042Z,23.3
2018-05-04T06:59:48.087Z,23.3
2018-05-04T07:00:38.195Z,23.3
2018-05-04T07:01:28.215Z,23.4
2018-05-04T07:02:18.294Z,23.3
2018-05-04T07:03:08.056Z,23.3
2018-05-04T07:03:58.430Z,23.3
2018-05-04T07:04:48.203Z,23.3
2018-05-04T07:05:38.541Z,23.4
2018-05-04T07:06:28.599Z,23.4
2018-05-04T07:07:18.669Z,23.4
2018-05-04T07:08:08.733Z,23.4
2018-05-04T07:08:58.957Z,23.4
2018-05-04T07:09:48.862Z,23.4
2018-05-04T07:10:38.647Z,23.4
2018-05-04T07:11:28.988Z,23.4
2018-05-04T07:12:19.048Z,23.4
2018-05-04T07:13:08.845Z,23.4
2018-05-04T07:13:59.171Z,23.4
2018-05-04T07:14:48.978Z,23.4
2018-05-04T07:15:39.296Z,23.4
2018-05-04T07:16:29.365Z,23.4
2018-05-04T07:17:19.522Z,23.4
2018-05-04T07:18:09.493Z,23.4
2018-05-04T07:18:59.280Z,23.4
2018-05-04T07:19:49.638Z,23.4
2018-05-04T07:20:39.709Z,23.4
2018-05-04T07:21:29.763Z,23.4
2018-05-04T07:22:19.817Z,23.4
2018-05-04T07:23:09.878Z,23.4
2018-05-04T07:23:59.962Z,23.4
2018-05-04T07:24:50.016Z,23.4
2018-05-04T07:25:40.087Z,23.4
2018-05-04T07:26:30.196Z,23.4
2018-05-04T07:27:19.941Z,23.4
2018-05-04T07:28:09.993Z,23.4
2018-05-04T07:29:00.350Z,23.4
2018-05-04T07:29:50.416Z,23.4
2018-05-04T07:30:40.474Z,23.4
2018-05-04T07:31:30.537Z,23.4
2018-05-04T07:32:20.613Z,23.4
2018-05-04T07:33:10.092Z,23.4
2018-05-04T07:34:00.738Z,23.4
2018-05-04T07:34:50.812Z,23.4
2018-05-04T07:35:40.865Z,23.4
2018-05-04T07:36:30.634Z,23.4
2018-05-04T07:37:20.985Z,23.4
2018-05-04T07:38:11.043Z,23.4
2018-05-04T07:39:00.828Z,23.4
2018-05-04T07:39:51.181Z,23.4
2018-05-04T07:40:41.241Z,23.4
2018-05-04T07:41:31.295Z,23.4
2018-05-04T07:42:21.363Z,23.4
2018-05-04T07:43:11.587Z,23.4
2018-05-04T07:44:01.235Z,23.4
2018-05-04T07:44:51.283Z,23.4
2018-05-04T07:45:41.631Z,23.4
2018-05-04T07:46:31.693Z,23.4
2018-05-04T07:47:21.762Z,23.4
2018-05-04T07:48:11.838Z,23.4
2018-05-04T07:49:01.987Z,23.4
2018-05-04T07:49:51.965Z,23.4
2018-05-04T07:50:42.022Z,23.4
2018-05-04T07:51:32.099Z,23.4
2018-05-04T07:52:22.144Z,23.4
2018-05-04T07:53:12.229Z,23.4
2018-05-04T07:54:02.369Z,23.4
2018-05-04T07:54:52.339Z,23.4
2018-05-04T07:55:42.414Z,23.4
2018-05-04T07:56:32.470Z,23.4
2018-05-04T07:57:22.536Z,23.4
2018-05-04T07:58:12.591Z,23.4
2018-05-04T07:59:02.656Z,23.4
2018-05-04T07:59:52.731Z,23.4
2018-05-04T08:00:42.789Z,23.4
2018-05-04T08:01:32.858Z,23.4
2018-05-04T08:02:22.921Z,23.4
2018-05-04T08:03:12.977Z,23.4
2018-05-04T08:04:03.047Z,23.4
2018-05-04T08:04:53.113Z,23.4
2018-05-04T08:05:43.176Z,23.5
2018-05-04T08:06:33.242Z,23.4
2018-05-04T08:07:23.320Z,23.4
2018-05-04T08:08:13.365Z,23.4
2018-05-04T08:09:03.165Z,23.4
2018-05-04T08:09:53.516Z,23.4
2018-05-04T08:10:43.567Z,23.4
2018-05-04T08:11:33.359Z,23.4
2018-05-04T08:12:23.688Z,23.4
2018-05-04T08:13:13.757Z,23.5
2018-05-04T08:14:03.843Z,23.4
2018-05-04T08:14:53.713Z,23.5
2018-05-04T08:15:43.948Z,23.5
2018-05-04T08:16:33.748Z,23.4
2018-05-04T08:17:24.098Z,23.5
2018-05-04T08:18:13.880Z,23.4
2018-05-04T08:19:03.950Z,23.4
2018-05-04T08:19:54.273Z,23.5
2018-05-04T08:20:44.342Z,23.4
2018-05-04T08:21:34.408Z,23.5
2018-05-04T08:22:24.469Z,23.4
2018-05-04T08:23:14.251Z,23.5
2018-05-04T08:24:04.599Z,23.5
2018-05-04T08:24:54.379Z,23.5
2018-05-04T08:25:44.743Z,23.5
2018-05-04T08:26:34.815Z,23.5
2018-05-04T08:27:24.979Z,23.5
2018-05-04T08:28:14.350Z,23.5
2018-05-04T08:29:04.995Z,23.5
2018-05-04T08:29:54.479Z,23.5
2018-05-04T08:30:45.129Z,23.5
2018-05-04T08:31:35.199Z,23.5
2018-05-04T08:32:25.264Z,23.5
2018-05-04T08:33:15.339Z,23.5
2018-05-04T08:34:05.105Z,23.5
2018-05-04T08:34:55.447Z,23.5
2018-05-04T08:35:45.522Z,23.5
2018-05-04T08:36:35.294Z,23.5
2018-05-04T08:37:25.658Z,23.5
2018-05-04T08:38:15.417Z,23.5
2018-05-04T08:39:05.480Z,23.5
2018-05-04T08:39:55.817Z,23.5
2018-05-04T08:40:45.646Z,23.5
2018-05-04T08:41:35.952Z,23.5
2018-05-04T08:42:26.013Z,23.5
2018-05-04T08:43:16.432Z,23.5
2018-05-04T08:44:06.151Z,23.5
2018-05-04T08:44:56.230Z,23.5
2018-05-04T08:45:46.276Z,23.5
2018-05-04T08:46:36.065Z,23.5
2018-05-04T08:47:26.139Z,23.5
2018-05-04T08:48:16.948Z,23.5
2018-05-04T08:49:06.271Z,23.5
2018-05-04T08:49:56.606Z,23.6
2018-05-04T08:50:46.665Z,23.5
2018-05-04T08:51:36.732Z,23.6
2018-05-04T08:52:26.798Z,23.5
2018-05-04T08:53:16.866Z,23.5
2018-05-04T08:54:06.943Z,23.5
2018-05-04T08:54:57.001Z,23.6
2018-05-04T08:55:47.054Z,23.6
2018-05-04T08:56:37.119Z,23.5
2018-05-04T08:57:27.340Z,23.5
2018-05-04T08:58:17.262Z,23.6
2018-05-04T08:59:07.318Z,23.5
2018-05-04T08:59:57.382Z,23.5
2018-05-04T09:00:47.458Z,23.5
2018-05-04T09:01:37.506Z,23.6
2018-05-04T09:02:27.568Z,23.5
2018-05-04T09:03:17.631Z,23.5
2018-05-04T09:04:07.719Z,23.5
2018-05-04T09:04:57.776Z,23.5
2018-05-04T09:05:47.550Z,23.5
2018-05-04T09:06:37.909Z,23.6
2018-05-04T09:07:28.006Z,23.6
2018-05-04T09:08:18.047Z,23.5
2018-05-04T09:09:07.802Z,23.6
2018-05-04T09:09:58.174Z,23.6
2018-05-04T09:10:48.213Z,23.6
2018-05-04T09:11:38.280Z,23.5
2018-05-04T09:12:28.078Z,23.6
2018-05-04T09:13:18.442Z,23.6
2018-05-04T09:14:08.201Z,23.6
2018-05-04T09:14:58.544Z,23.6
2018-05-04T09:15:48.612Z,23.6
2018-05-04T09:16:38.687Z,23.6
2018-05-04T09:17:28.459Z,23.6
2018-05-04T09:18:18.812Z,23.6
2018-05-04T09:19:08.587Z,23.6
2018-05-04T09:19:58.938Z,23.6
2018-05-04T09:20:48.732Z,23.5
2018-05-04T09:21:38.789Z,23.6
2018-05-04T09:22:28.886Z,23.6
2018-05-04T09:23:19.197Z,23.6
2018-05-04T09:24:09.256Z,23.6
2018-05-04T09:24:59.318Z,23.6
2018-05-04T09:25:49.387Z,23.6
2018-05-04T09:26:39.174Z,23.6
2018-05-04T09:27:29.526Z,23.6
2018-05-04T09:28:19.594Z,23.6
2018-05-04T09:29:09.660Z,23.6
2018-05-04T09:29:59.728Z,23.6
2018-05-04T09:30:50.074Z,23.6
2018-05-04T09:31:39.846Z,23.6
2018-05-04T09:32:29.632Z,23.6
2018-05-04T09:33:19.984Z,23.6
2018-05-04T09:34:10.052Z,23.6
2018-05-04T09:35:00.119Z,23.6
2018-05-04T09:35:50.181Z,23.6
2018-05-04T09:36:39.961Z,23.6
2018-05-04T09:37:30.330Z,23.6
2018-05-04T09:38:20.388Z,23.6
2018-05-04T09:39:10.437Z,23.6
2018-05-04T09:40:00.504Z,23.6
2018-05-04T09:40:50.577Z,23.6
2018-05-04T09:41:40.358Z,23.6
2018-05-04T09:42:30.706Z,23.6
2018-05-04T09:43:20.863Z,23.6
2018-05-04T09:44:10.842Z,23.6
2018-05-04T09:45:00.913Z,23.6
2018-05-04T09:45:50.975Z,23.6
2018-05-04T09:46:41.030Z,23.6
2018-05-04T09:47:31.126Z,23.6
2018-05-04T09:48:21.177Z,23.6
2018-05-04T09:49:11.466Z,23.6
2018-05-04T09:50:01.295Z,23.6
2018-05-04T09:50:51.366Z,23.6
2018-05-04T09:51:41.422Z,23.6
2018-05-04T09:52:31.485Z,23.6
2018-05-04T09:53:21.566Z,23.6
2018-05-04T09:54:11.338Z,23.6
2018-05-04T09:55:01.680Z,23.6
2018-05-04T09:55:51.842Z,23.6
2018-05-04T09:56:41.819Z,23.6
2018-05-04T09:57:31.890Z,23.6
2018-05-04T09:58:21.939Z,23.6
2018-05-04T09:59:12.017Z,23.6
2018-05-04T10:00:02.088Z,23.6
2018-05-04T10:00:52.161Z,23.6
2018-05-04T10:01:42.278Z,23.6
2018-05-04T10:02:32.272Z,23.6
2018-05-04T10:03:22.355Z,23.6
2018-05-04T10:04:12.412Z,23.6
2018-05-04T10:05:02.473Z,23.6
2018-05-04T10:05:52.554Z,23.6
2018-05-04T10:06:42.609Z,23.6
2018-05-04T10:07:32.687Z,23.6
2018-05-04T10:08:22.740Z,23.6
2018-05-04T10:09:12.947Z,23.6
2018-05-04T10:10:02.881Z,23.6
2018-05-04T10:10:52.657Z,23.6
2018-05-04T10:11:42.996Z,23.6
2018-05-04T10:12:33.064Z,23.6
2018-05-04T10:13:23.125Z,23.6
2018-05-04T10:14:13.199Z,23.6
2018-05-04T10:15:03.262Z,23.6
2018-05-04T10:15:53.329Z,23.6
2018-05-04T10:16:43.397Z,23.6
2018-05-04T10:17:33.469Z,23.6
2018-05-04T10:18:23.259Z,23.6
2018-05-04T10:19:13.592Z,23.6
2018-05-04T10:20:03.674Z,23.6
2018-05-04T10:20:53.734Z,23.6
2018-05-04T10:21:43.806Z,23.6
2018-05-04T10:22:33.859Z,23.6
2018-05-04T10:23:23.909Z,23.6
2018-05-04T10:24:13.698Z,23.6
2018-05-04T10:25:04.051Z,23.6
2018-05-04T10:25:54.110Z,23.6
2018-05-04T10:26:43.894Z,23.6
2018-05-04T10:27:33.957Z,23.6
2018-05-04T10:28:24.038Z,23.6
2018-05-04T10:29:14.098Z,23.6
2018-05-04T10:30:04.455Z,23.6
2018-05-04T10:30:54.700Z,23.6
2018-05-04T10:31:44.564Z,23.6
2018-05-04T10:32:34.368Z,23.7
2018-05-04T10:33:24.696Z,23.6
2018-05-04T10:34:14.760Z,23.6
2018-05-04T10:35:04.871Z,23.6
2018-05-04T10:35:54.950Z,23.6
2018-05-04T10:36:44.677Z,23.6
2018-05-04T10:37:34.738Z,23.6
2018-05-04T10:38:25.224Z,23.6
2018-05-04T10:39:15.154Z,23.6
2018-05-04T10:40:05.234Z,23.6
2018-05-04T10:40:55.006Z,23.6
2018-05-04T10:41:45.373Z,23.6
2018-05-04T10:42:35.427Z,23.7
2018-05-04T10:43:25.486Z,23.6
2018-05-04T10:44:15.286Z,23.6
2018-05-04T10:45:05.720Z,23.6
2018-05-04T10:45:55.698Z,23.6
2018-05-04T10:46:45.754Z,23.6
2018-05-04T10:47:35.816Z,23.6
2018-05-04T10:48:25.887Z,23.7
2018-05-04T10:49:15.682Z,23.8
2018-05-04T10:50:06.037Z,23.6
2018-05-04T10:50:56.119Z,23.6
2018-05-04T10:51:46.150Z,23.6
2018-05-04T10:52:36.219Z,23.6
2018-05-04T10:53:26.296Z,23.6
2018-05-04T10:54:16.074Z,23.6
2018-05-04T10:55:06.409Z,23.6
2018-05-04T10:55:56.485Z,23.6
2018-05-04T10:56:46.569Z,23.6
2018-05-04T10:57:36.610Z,23.7
2018-05-04T10:58:26.673Z,23.7
2018-05-04T10:59:16.739Z,23.6
2018-05-04T11:00:06.805Z,23.7
2018-05-04T11:00:56.871Z,23.6
2018-05-04T11:01:46.943Z,23.6
2018-05-04T11:02:37.004Z,23.6
2018-05-04T11:03:27.064Z,23.6
2018-05-04T11:04:17.138Z,23.6
2018-05-04T11:05:07.215Z,23.6
2018-05-04T11:05:57.282Z,23.7
2018-05-04T11:06:47.348Z,23.6
2018-05-04T11:07:37.400Z,23.6